sensor_id;sensor_type;location;lat;lon;timestamp;P1;durP1;ratioP1;P2;durP2;ratioP2
26407;SDS011;14583;43.604;1.364;2024-02-21T00:00:57;57.58;;;35.17;;
26407;SDS011;14583;43.604;1.364;2024-02-21T00:03:23;56.63;;;35.20;;
26407;SDS011;14583;43.604;1.364;2024-02-21T00:05:49;58.45;;;34.60;;
26407;SDS011;14583;43.604;1.364;2024-02-21T00:08:15;51.70;;;34.30;;
26407;SDS011;14583;43.604;1.364;2024-02-21T00:10:40;58.45;;;36.42;;
26407;SDS011;14583;43.604;1.364;2024-02-21T00:13:06;58.35;;;36.75;;
26407;SDS011;14583;43.604;1.364;2024-02-21T00:15:32;55.97;;;35.00;;
26407;SDS011;14583;43.604;1.364;2024-02-21T00:17:58;54.20;;;35.20;;
26407;SDS011;14583;43.604;1.364;2024-02-21T00:20:23;52.92;;;34.63;;
26407;SDS011;14583;43.604;1.364;2024-02-21T00:22:51;58.10;;;35.53;;
26407;SDS011;14583;43.604;1.364;2024-02-21T00:25:16;49.28;;;33.83;;
26407;SDS011;14583;43.604;1.364;2024-02-21T00:27:42;51.17;;;33.15;;
26407;SDS011;14583;43.604;1.364;2024-02-21T00:30:08;54.08;;;34.15;;
26407;SDS011;14583;43.604;1.364;2024-02-21T00:32:34;60.72;;;34.10;;
26407;SDS011;14583;43.604;1.364;2024-02-21T00:35:00;55.90;;;34.70;;
26407;SDS011;14583;43.604;1.364;2024-02-21T00:37:26;61.65;;;36.80;;
26407;SDS011;14583;43.604;1.364;2024-02-21T00:39:53;56.80;;;35.33;;
26407;SDS011;14583;43.604;1.364;2024-02-21T00:42:19;53.60;;;35.22;;
26407;SDS011;14583;43.604;1.364;2024-02-21T00:44:46;57.20;;;34.85;;
26407;SDS011;14583;43.604;1.364;2024-02-21T00:47:11;60.33;;;35.95;;
26407;SDS011;14583;43.604;1.364;2024-02-21T00:49:37;56.47;;;34.65;;
26407;SDS011;14583;43.604;1.364;2024-02-21T00:52:03;58.58;;;34.10;;
26407;SDS011;14583;43.604;1.364;2024-02-21T00:54:29;53.83;;;33.45;;
26407;SDS011;14583;43.604;1.364;2024-02-21T00:56:54;54.45;;;32.92;;
26407;SDS011;14583;43.604;1.364;2024-02-21T00:59:20;53.45;;;33.83;;
26407;SDS011;14583;43.604;1.364;2024-02-21T01:01:46;50.72;;;32.35;;
26407;SDS011;14583;43.604;1.364;2024-02-21T01:04:12;54.38;;;32.63;;
26407;SDS011;14583;43.604;1.364;2024-02-21T01:06:38;50.05;;;31.92;;
26407;SDS011;14583;43.604;1.364;2024-02-21T01:09:03;51.03;;;30.60;;
26407;SDS011;14583;43.604;1.364;2024-02-21T01:11:29;45.88;;;30.27;;
26407;SDS011;14583;43.604;1.364;2024-02-21T01:13:55;52.08;;;30.88;;
26407;SDS011;14583;43.604;1.364;2024-02-21T01:16:21;51.90;;;30.20;;
26407;SDS011;14583;43.604;1.364;2024-02-21T01:18:47;46.72;;;27.85;;
26407;SDS011;14583;43.604;1.364;2024-02-21T01:21:12;44.45;;;25.85;;
26407;SDS011;14583;43.604;1.364;2024-02-21T01:23:39;49.85;;;27.20;;
26407;SDS011;14583;43.604;1.364;2024-02-21T01:26:05;39.60;;;23.25;;
26407;SDS011;14583;43.604;1.364;2024-02-21T01:28:33;42.97;;;24.25;;
26407;SDS011;14583;43.604;1.364;2024-02-21T01:31:00;36.55;;;21.88;;
26407;SDS011;14583;43.604;1.364;2024-02-21T01:33:26;39.20;;;23.67;;
26407;SDS011;14583;43.604;1.364;2024-02-21T01:35:52;38.85;;;23.27;;
26407;SDS011;14583;43.604;1.364;2024-02-21T01:38:18;36.33;;;20.67;;
26407;SDS011;14583;43.604;1.364;2024-02-21T01:40:43;32.00;;;20.58;;
26407;SDS011;14583;43.604;1.364;2024-02-21T01:43:16;33.92;;;20.00;;
26407;SDS011;14583;43.604;1.364;2024-02-21T01:45:43;37.47;;;21.83;;
26407;SDS011;14583;43.604;1.364;2024-02-21T01:48:11;35.92;;;21.27;;
26407;SDS011;14583;43.604;1.364;2024-02-21T01:50:38;38.10;;;21.50;;
26407;SDS011;14583;43.604;1.364;2024-02-21T01:53:04;34.92;;;19.48;;
26407;SDS011;14583;43.604;1.364;2024-02-21T01:55:31;29.42;;;18.05;;
26407;SDS011;14583;43.604;1.364;2024-02-21T01:57:56;27.40;;;17.58;;
26407;SDS011;14583;43.604;1.364;2024-02-21T02:00:22;31.63;;;17.45;;
26407;SDS011;14583;43.604;1.364;2024-02-21T02:02:49;29.08;;;16.95;;
26407;SDS011;14583;43.604;1.364;2024-02-21T02:05:15;29.92;;;17.25;;
26407;SDS011;14583;43.604;1.364;2024-02-21T02:07:43;30.77;;;17.67;;
26407;SDS011;14583;43.604;1.364;2024-02-21T02:10:09;29.45;;;17.17;;
26407;SDS011;14583;43.604;1.364;2024-02-21T02:12:35;30.67;;;17.70;;
26407;SDS011;14583;43.604;1.364;2024-02-21T02:15:01;26.05;;;17.08;;
26407;SDS011;14583;43.604;1.364;2024-02-21T02:17:30;30.70;;;16.70;;
26407;SDS011;14583;43.604;1.364;2024-02-21T02:19:56;29.88;;;17.95;;
26407;SDS011;14583;43.604;1.364;2024-02-21T02:22:30;31.33;;;17.52;;
26407;SDS011;14583;43.604;1.364;2024-02-21T02:25:00;27.08;;;17.02;;
26407;SDS011;14583;43.604;1.364;2024-02-21T02:27:27;28.80;;;17.20;;
26407;SDS011;14583;43.604;1.364;2024-02-21T02:29:52;33.03;;;18.75;;
26407;SDS011;14583;43.604;1.364;2024-02-21T02:32:18;32.53;;;18.05;;
26407;SDS011;14583;43.604;1.364;2024-02-21T02:34:43;31.25;;;17.52;;
26407;SDS011;14583;43.604;1.364;2024-02-21T02:37:09;27.92;;;17.00;;
26407;SDS011;14583;43.604;1.364;2024-02-21T02:39:35;31.77;;;19.65;;
26407;SDS011;14583;43.604;1.364;2024-02-21T02:42:01;36.53;;;20.63;;
26407;SDS011;14583;43.604;1.364;2024-02-21T02:44:27;34.85;;;20.15;;
26407;SDS011;14583;43.604;1.364;2024-02-21T02:46:53;33.72;;;20.05;;
26407;SDS011;14583;43.604;1.364;2024-02-21T02:49:18;40.30;;;21.95;;
26407;SDS011;14583;43.604;1.364;2024-02-21T02:51:44;43.92;;;21.55;;
26407;SDS011;14583;43.604;1.364;2024-02-21T02:54:10;39.10;;;22.35;;
26407;SDS011;14583;43.604;1.364;2024-02-21T02:56:36;33.22;;;21.00;;
26407;SDS011;14583;43.604;1.364;2024-02-21T02:59:02;35.63;;;20.50;;
26407;SDS011;14583;43.604;1.364;2024-02-21T03:01:28;30.75;;;19.38;;
26407;SDS011;14583;43.604;1.364;2024-02-21T03:03:54;30.73;;;18.52;;
26407;SDS011;14583;43.604;1.364;2024-02-21T03:06:20;35.28;;;19.83;;
26407;SDS011;14583;43.604;1.364;2024-02-21T03:08:46;29.83;;;19.10;;
26407;SDS011;14583;43.604;1.364;2024-02-21T03:11:12;30.63;;;19.70;;
26407;SDS011;14583;43.604;1.364;2024-02-21T03:13:38;31.58;;;18.98;;
26407;SDS011;14583;43.604;1.364;2024-02-21T03:16:03;38.35;;;18.45;;
26407;SDS011;14583;43.604;1.364;2024-02-21T03:18:29;33.70;;;19.92;;
26407;SDS011;14583;43.604;1.364;2024-02-21T03:20:55;35.55;;;18.10;;
26407;SDS011;14583;43.604;1.364;2024-02-21T03:23:21;25.85;;;18.05;;
26407;SDS011;14583;43.604;1.364;2024-02-21T03:25:47;30.13;;;18.40;;
26407;SDS011;14583;43.604;1.364;2024-02-21T03:28:13;30.00;;;18.75;;
26407;SDS011;14583;43.604;1.364;2024-02-21T03:30:39;27.65;;;17.80;;
26407;SDS011;14583;43.604;1.364;2024-02-21T03:33:13;30.65;;;18.10;;
26407;SDS011;14583;43.604;1.364;2024-02-21T03:35:39;31.60;;;18.25;;
26407;SDS011;14583;43.604;1.364;2024-02-21T03:38:04;28.05;;;16.95;;
26407;SDS011;14583;43.604;1.364;2024-02-21T03:40:36;27.85;;;18.38;;
26407;SDS011;14583;43.604;1.364;2024-02-21T03:43:01;29.25;;;17.95;;
26407;SDS011;14583;43.604;1.364;2024-02-21T03:45:27;30.20;;;18.70;;
26407;SDS011;14583;43.604;1.364;2024-02-21T03:47:53;31.67;;;17.05;;
26407;SDS011;14583;43.604;1.364;2024-02-21T03:50:18;27.92;;;17.15;;
26407;SDS011;14583;43.604;1.364;2024-02-21T03:52:44;27.85;;;17.45;;
26407;SDS011;14583;43.604;1.364;2024-02-21T03:55:10;24.63;;;16.90;;
26407;SDS011;14583;43.604;1.364;2024-02-21T03:57:35;29.70;;;16.67;;
26407;SDS011;14583;43.604;1.364;2024-02-21T04:00:01;31.25;;;16.65;;
26407;SDS011;14583;43.604;1.364;2024-02-21T04:02:28;26.80;;;17.33;;
26407;SDS011;14583;43.604;1.364;2024-02-21T04:04:57;30.73;;;16.02;;
26407;SDS011;14583;43.604;1.364;2024-02-21T04:07:23;31.30;;;17.40;;
26407;SDS011;14583;43.604;1.364;2024-02-21T04:09:55;30.92;;;17.33;;
26407;SDS011;14583;43.604;1.364;2024-02-21T04:12:30;29.83;;;18.02;;
26407;SDS011;14583;43.604;1.364;2024-02-21T04:14:55;31.92;;;18.58;;
26407;SDS011;14583;43.604;1.364;2024-02-21T04:17:21;28.00;;;19.20;;
26407;SDS011;14583;43.604;1.364;2024-02-21T04:19:55;32.85;;;18.77;;
26407;SDS011;14583;43.604;1.364;2024-02-21T04:22:39;30.63;;;18.58;;
26407;SDS011;14583;43.604;1.364;2024-02-21T04:25:05;32.95;;;19.20;;
26407;SDS011;14583;43.604;1.364;2024-02-21T04:27:31;30.15;;;17.35;;
26407;SDS011;14583;43.604;1.364;2024-02-21T04:30:02;25.85;;;17.02;;
26407;SDS011;14583;43.604;1.364;2024-02-21T04:32:37;24.10;;;15.10;;
26407;SDS011;14583;43.604;1.364;2024-02-21T04:35:03;19.97;;;13.17;;
26407;SDS011;14583;43.604;1.364;2024-02-21T04:37:29;21.83;;;12.98;;
26407;SDS011;14583;43.604;1.364;2024-02-21T04:39:56;24.27;;;12.13;;
26407;SDS011;14583;43.604;1.364;2024-02-21T04:42:24;18.45;;;11.63;;
26407;SDS011;14583;43.604;1.364;2024-02-21T04:45:01;20.38;;;11.30;;
26407;SDS011;14583;43.604;1.364;2024-02-21T04:47:30;21.70;;;11.88;;
26407;SDS011;14583;43.604;1.364;2024-02-21T04:49:56;19.33;;;10.90;;
26407;SDS011;14583;43.604;1.364;2024-02-21T04:52:22;18.90;;;10.80;;
26407;SDS011;14583;43.604;1.364;2024-02-21T04:54:47;20.02;;;10.68;;
26407;SDS011;14583;43.604;1.364;2024-02-21T04:57:13;18.42;;;10.95;;
26407;SDS011;14583;43.604;1.364;2024-02-21T04:59:44;15.88;;;10.40;;
26407;SDS011;14583;43.604;1.364;2024-02-21T05:02:14;19.65;;;10.57;;
26407;SDS011;14583;43.604;1.364;2024-02-21T05:04:39;18.80;;;11.00;;
26407;SDS011;14583;43.604;1.364;2024-02-21T05:07:07;16.00;;;10.73;;
26407;SDS011;14583;43.604;1.364;2024-02-21T05:09:33;20.70;;;12.02;;
26407;SDS011;14583;43.604;1.364;2024-02-21T05:11:59;18.83;;;11.07;;
26407;SDS011;14583;43.604;1.364;2024-02-21T05:14:25;23.77;;;11.77;;
26407;SDS011;14583;43.604;1.364;2024-02-21T05:17:03;18.27;;;11.15;;
26407;SDS011;14583;43.604;1.364;2024-02-21T05:19:32;15.40;;;10.20;;
26407;SDS011;14583;43.604;1.364;2024-02-21T05:25:09;21.33;;;11.52;;
26407;SDS011;14583;43.604;1.364;2024-02-21T05:27:34;20.55;;;11.68;;
26407;SDS011;14583;43.604;1.364;2024-02-21T05:30:01;19.75;;;10.90;;
26407;SDS011;14583;43.604;1.364;2024-02-21T05:32:28;20.10;;;11.27;;
26407;SDS011;14583;43.604;1.364;2024-02-21T05:34:58;22.42;;;10.90;;
26407;SDS011;14583;43.604;1.364;2024-02-21T05:37:23;19.83;;;11.40;;
26407;SDS011;14583;43.604;1.364;2024-02-21T05:39:49;21.63;;;11.50;;
26407;SDS011;14583;43.604;1.364;2024-02-21T05:42:15;16.10;;;10.15;;
26407;SDS011;14583;43.604;1.364;2024-02-21T05:44:41;15.38;;;10.20;;
26407;SDS011;14583;43.604;1.364;2024-02-21T05:47:06;19.60;;;9.88;;
26407;SDS011;14583;43.604;1.364;2024-02-21T05:49:39;21.45;;;9.57;;
26407;SDS011;14583;43.604;1.364;2024-02-21T05:52:05;17.02;;;9.68;;
26407;SDS011;14583;43.604;1.364;2024-02-21T05:54:31;16.10;;;9.90;;
26407;SDS011;14583;43.604;1.364;2024-02-21T05:56:57;15.23;;;8.65;;
26407;SDS011;14583;43.604;1.364;2024-02-21T05:59:23;13.05;;;9.10;;
26407;SDS011;14583;43.604;1.364;2024-02-21T06:01:57;17.88;;;9.63;;
26407;SDS011;14583;43.604;1.364;2024-02-21T06:04:23;19.00;;;9.55;;
26407;SDS011;14583;43.604;1.364;2024-02-21T06:06:49;22.27;;;9.82;;
26407;SDS011;14583;43.604;1.364;2024-02-21T06:09:14;17.38;;;9.25;;
26407;SDS011;14583;43.604;1.364;2024-02-21T06:11:40;19.92;;;10.25;;
26407;SDS011;14583;43.604;1.364;2024-02-21T06:14:06;16.45;;;8.95;;
26407;SDS011;14583;43.604;1.364;2024-02-21T06:16:32;16.90;;;9.50;;
26407;SDS011;14583;43.604;1.364;2024-02-21T06:19:01;15.75;;;8.25;;
26407;SDS011;14583;43.604;1.364;2024-02-21T06:21:29;14.10;;;8.63;;
26407;SDS011;14583;43.604;1.364;2024-02-21T06:23:55;15.18;;;9.48;;
26407;SDS011;14583;43.604;1.364;2024-02-21T06:26:21;15.75;;;8.68;;
26407;SDS011;14583;43.604;1.364;2024-02-21T06:28:47;15.77;;;9.00;;
26407;SDS011;14583;43.604;1.364;2024-02-21T06:31:12;19.95;;;8.65;;
26407;SDS011;14583;43.604;1.364;2024-02-21T06:33:38;14.93;;;7.80;;
26407;SDS011;14583;43.604;1.364;2024-02-21T06:36:05;12.07;;;8.00;;
26407;SDS011;14583;43.604;1.364;2024-02-21T06:38:43;17.25;;;8.38;;
26407;SDS011;14583;43.604;1.364;2024-02-21T06:41:18;15.90;;;7.43;;
26407;SDS011;14583;43.604;1.364;2024-02-21T06:43:46;16.92;;;8.38;;
26407;SDS011;14583;43.604;1.364;2024-02-21T06:46:22;16.65;;;8.25;;
26407;SDS011;14583;43.604;1.364;2024-02-21T06:48:51;15.02;;;8.40;;
26407;SDS011;14583;43.604;1.364;2024-02-21T06:51:17;15.55;;;8.70;;
26407;SDS011;14583;43.604;1.364;2024-02-21T06:53:43;15.20;;;8.50;;
26407;SDS011;14583;43.604;1.364;2024-02-21T06:56:09;19.10;;;9.63;;
26407;SDS011;14583;43.604;1.364;2024-02-21T06:58:35;18.17;;;9.43;;
26407;SDS011;14583;43.604;1.364;2024-02-21T07:01:01;14.65;;;9.07;;
26407;SDS011;14583;43.604;1.364;2024-02-21T07:03:27;17.23;;;10.07;;
26407;SDS011;14583;43.604;1.364;2024-02-21T07:05:53;17.95;;;10.95;;
26407;SDS011;14583;43.604;1.364;2024-02-21T07:08:18;17.77;;;10.65;;
26407;SDS011;14583;43.604;1.364;2024-02-21T07:10:44;28.35;;;10.90;;
26407;SDS011;14583;43.604;1.364;2024-02-21T07:13:10;66.97;;;14.65;;
26407;SDS011;14583;43.604;1.364;2024-02-21T07:15:35;33.50;;;11.40;;
26407;SDS011;14583;43.604;1.364;2024-02-21T07:18:02;24.88;;;10.25;;
26407;SDS011;14583;43.604;1.364;2024-02-21T07:20:28;20.73;;;9.35;;
26407;SDS011;14583;43.604;1.364;2024-02-21T07:22:54;15.52;;;8.95;;
26407;SDS011;14583;43.604;1.364;2024-02-21T07:25:20;19.30;;;9.15;;
26407;SDS011;14583;43.604;1.364;2024-02-21T07:27:45;20.92;;;10.43;;
26407;SDS011;14583;43.604;1.364;2024-02-21T07:30:11;17.17;;;9.27;;
26407;SDS011;14583;43.604;1.364;2024-02-21T07:32:37;21.33;;;8.63;;
26407;SDS011;14583;43.604;1.364;2024-02-21T07:35:03;13.52;;;8.68;;
26407;SDS011;14583;43.604;1.364;2024-02-21T07:37:29;32.50;;;9.48;;
26407;SDS011;14583;43.604;1.364;2024-02-21T07:39:54;17.52;;;9.10;;
26407;SDS011;14583;43.604;1.364;2024-02-21T07:42:20;22.77;;;9.60;;
26407;SDS011;14583;43.604;1.364;2024-02-21T07:44:45;21.42;;;9.43;;
26407;SDS011;14583;43.604;1.364;2024-02-21T07:47:11;24.55;;;9.85;;
26407;SDS011;14583;43.604;1.364;2024-02-21T07:49:40;19.73;;;9.50;;
26407;SDS011;14583;43.604;1.364;2024-02-21T07:52:07;18.38;;;9.55;;
26407;SDS011;14583;43.604;1.364;2024-02-21T07:54:33;20.45;;;9.30;;
26407;SDS011;14583;43.604;1.364;2024-02-21T07:56:59;20.33;;;8.48;;
26407;SDS011;14583;43.604;1.364;2024-02-21T07:59:24;15.35;;;9.13;;
26407;SDS011;14583;43.604;1.364;2024-02-21T08:01:50;18.60;;;9.35;;
26407;SDS011;14583;43.604;1.364;2024-02-21T08:04:16;20.15;;;8.98;;
26407;SDS011;14583;43.604;1.364;2024-02-21T08:06:41;17.90;;;9.13;;
26407;SDS011;14583;43.604;1.364;2024-02-21T08:09:08;21.40;;;9.15;;
26407;SDS011;14583;43.604;1.364;2024-02-21T08:11:33;24.80;;;10.00;;
26407;SDS011;14583;43.604;1.364;2024-02-21T08:13:59;18.67;;;10.13;;
26407;SDS011;14583;43.604;1.364;2024-02-21T08:16:26;27.17;;;10.07;;
26407;SDS011;14583;43.604;1.364;2024-02-21T08:18:51;24.60;;;10.23;;
26407;SDS011;14583;43.604;1.364;2024-02-21T08:21:17;24.10;;;10.30;;
26407;SDS011;14583;43.604;1.364;2024-02-21T08:23:43;20.42;;;10.35;;
26407;SDS011;14583;43.604;1.364;2024-02-21T08:26:08;25.70;;;10.00;;
26407;SDS011;14583;43.604;1.364;2024-02-21T08:28:34;26.13;;;10.40;;
26407;SDS011;14583;43.604;1.364;2024-02-21T08:31:00;23.35;;;9.48;;
26407;SDS011;14583;43.604;1.364;2024-02-21T08:33:25;24.98;;;10.43;;
26407;SDS011;14583;43.604;1.364;2024-02-21T08:35:57;23.17;;;9.00;;
26407;SDS011;14583;43.604;1.364;2024-02-21T08:38:23;19.77;;;9.15;;
26407;SDS011;14583;43.604;1.364;2024-02-21T08:40:50;25.30;;;9.82;;
26407;SDS011;14583;43.604;1.364;2024-02-21T08:43:15;17.08;;;8.20;;
26407;SDS011;14583;43.604;1.364;2024-02-21T08:45:41;23.00;;;9.10;;
26407;SDS011;14583;43.604;1.364;2024-02-21T08:48:07;14.48;;;6.93;;
26407;SDS011;14583;43.604;1.364;2024-02-21T08:50:33;15.48;;;8.00;;
26407;SDS011;14583;43.604;1.364;2024-02-21T08:53:03;16.10;;;7.75;;
26407;SDS011;14583;43.604;1.364;2024-02-21T08:55:29;12.27;;;6.93;;
26407;SDS011;14583;43.604;1.364;2024-02-21T08:57:54;13.57;;;6.80;;
26407;SDS011;14583;43.604;1.364;2024-02-21T09:00:20;16.00;;;6.90;;
26407;SDS011;14583;43.604;1.364;2024-02-21T09:02:52;15.13;;;6.68;;
26407;SDS011;14583;43.604;1.364;2024-02-21T09:05:17;14.15;;;6.93;;
26407;SDS011;14583;43.604;1.364;2024-02-21T09:07:43;12.50;;;6.60;;
26407;SDS011;14583;43.604;1.364;2024-02-21T09:10:09;15.88;;;7.10;;
26407;SDS011;14583;43.604;1.364;2024-02-21T09:12:35;9.68;;;6.00;;
26407;SDS011;14583;43.604;1.364;2024-02-21T09:15:00;14.65;;;6.10;;
26407;SDS011;14583;43.604;1.364;2024-02-21T09:17:26;9.93;;;5.20;;
26407;SDS011;14583;43.604;1.364;2024-02-21T09:19:54;11.13;;;6.13;;
26407;SDS011;14583;43.604;1.364;2024-02-21T09:22:21;13.13;;;6.40;;
26407;SDS011;14583;43.604;1.364;2024-02-21T09:24:46;11.93;;;6.03;;
26407;SDS011;14583;43.604;1.364;2024-02-21T09:27:13;11.52;;;5.47;;
26407;SDS011;14583;43.604;1.364;2024-02-21T09:29:39;16.13;;;5.55;;
26407;SDS011;14583;43.604;1.364;2024-02-21T09:32:05;11.05;;;5.35;;
26407;SDS011;14583;43.604;1.364;2024-02-21T09:34:31;18.85;;;6.22;;
26407;SDS011;14583;43.604;1.364;2024-02-21T09:36:57;23.15;;;7.18;;
26407;SDS011;14583;43.604;1.364;2024-02-21T09:39:23;15.50;;;5.40;;
26407;SDS011;14583;43.604;1.364;2024-02-21T09:41:50;12.57;;;4.88;;
26407;SDS011;14583;43.604;1.364;2024-02-21T09:44:21;13.63;;;5.15;;
26407;SDS011;14583;43.604;1.364;2024-02-21T09:46:55;17.90;;;5.60;;
26407;SDS011;14583;43.604;1.364;2024-02-21T09:49:30;12.02;;;5.43;;
26407;SDS011;14583;43.604;1.364;2024-02-21T09:51:57;12.85;;;5.57;;
26407;SDS011;14583;43.604;1.364;2024-02-21T09:54:28;18.77;;;5.03;;
26407;SDS011;14583;43.604;1.364;2024-02-21T09:56:55;12.02;;;5.20;;
26407;SDS011;14583;43.604;1.364;2024-02-21T09:59:21;17.77;;;5.22;;
26407;SDS011;14583;43.604;1.364;2024-02-21T10:01:49;9.23;;;4.93;;
26407;SDS011;14583;43.604;1.364;2024-02-21T10:04:16;11.73;;;4.50;;
26407;SDS011;14583;43.604;1.364;2024-02-21T10:06:44;13.93;;;5.00;;
26407;SDS011;14583;43.604;1.364;2024-02-21T10:09:19;14.25;;;4.88;;
26407;SDS011;14583;43.604;1.364;2024-02-21T10:11:47;10.70;;;4.65;;
26407;SDS011;14583;43.604;1.364;2024-02-21T10:14:14;13.43;;;5.05;;
26407;SDS011;14583;43.604;1.364;2024-02-21T10:16:40;11.55;;;5.43;;
26407;SDS011;14583;43.604;1.364;2024-02-21T10:19:15;10.55;;;4.60;;
26407;SDS011;14583;43.604;1.364;2024-02-21T10:21:45;9.65;;;5.25;;
26407;SDS011;14583;43.604;1.364;2024-02-21T10:24:29;8.77;;;4.25;;
26407;SDS011;14583;43.604;1.364;2024-02-21T10:27:03;14.95;;;4.95;;
26407;SDS011;14583;43.604;1.364;2024-02-21T10:29:33;13.32;;;6.70;;
26407;SDS011;14583;43.604;1.364;2024-02-21T10:32:06;17.75;;;5.07;;
26407;SDS011;14583;43.604;1.364;2024-02-21T10:34:36;14.82;;;4.82;;
26407;SDS011;14583;43.604;1.364;2024-02-21T10:37:03;9.77;;;4.32;;
26407;SDS011;14583;43.604;1.364;2024-02-21T10:39:34;15.85;;;4.78;;
26407;SDS011;14583;43.604;1.364;2024-02-21T10:42:03;15.77;;;4.90;;
26407;SDS011;14583;43.604;1.364;2024-02-21T10:44:30;14.38;;;4.82;;
26407;SDS011;14583;43.604;1.364;2024-02-21T10:46:58;16.90;;;5.28;;
26407;SDS011;14583;43.604;1.364;2024-02-21T10:49:25;12.95;;;4.97;;
26407;SDS011;14583;43.604;1.364;2024-02-21T10:52:06;11.77;;;4.45;;
26407;SDS011;14583;43.604;1.364;2024-02-21T10:54:45;12.07;;;4.65;;
26407;SDS011;14583;43.604;1.364;2024-02-21T10:57:21;18.33;;;4.75;;
26407;SDS011;14583;43.604;1.364;2024-02-21T10:59:47;9.10;;;4.38;;
26407;SDS011;14583;43.604;1.364;2024-02-21T11:02:14;21.52;;;5.28;;
26407;SDS011;14583;43.604;1.364;2024-02-21T11:04:40;16.95;;;4.50;;
26407;SDS011;14583;43.604;1.364;2024-02-21T11:07:06;18.45;;;5.43;;
26407;SDS011;14583;43.604;1.364;2024-02-21T11:09:33;14.43;;;4.63;;
26407;SDS011;14583;43.604;1.364;2024-02-21T11:12:03;11.20;;;4.57;;
26407;SDS011;14583;43.604;1.364;2024-02-21T11:14:30;14.60;;;5.55;;
26407;SDS011;14583;43.604;1.364;2024-02-21T11:17:02;15.68;;;5.10;;
26407;SDS011;14583;43.604;1.364;2024-02-21T11:19:30;12.70;;;4.63;;
26407;SDS011;14583;43.604;1.364;2024-02-21T11:21:57;15.98;;;5.60;;
26407;SDS011;14583;43.604;1.364;2024-02-21T11:24:26;16.70;;;5.78;;
26407;SDS011;14583;43.604;1.364;2024-02-21T11:27:07;47.92;;;7.63;;
26407;SDS011;14583;43.604;1.364;2024-02-21T11:29:46;26.75;;;5.75;;
26407;SDS011;14583;43.604;1.364;2024-02-21T11:32:14;27.05;;;5.47;;
26407;SDS011;14583;43.604;1.364;2024-02-21T11:34:41;12.40;;;5.00;;
26407;SDS011;14583;43.604;1.364;2024-02-21T11:37:18;20.27;;;5.68;;
26407;SDS011;14583;43.604;1.364;2024-02-21T11:39:44;24.42;;;5.10;;
26407;SDS011;14583;43.604;1.364;2024-02-21T11:42:10;18.45;;;6.18;;
26407;SDS011;14583;43.604;1.364;2024-02-21T11:44:37;10.80;;;4.60;;
26407;SDS011;14583;43.604;1.364;2024-02-21T11:47:04;17.85;;;5.05;;
26407;SDS011;14583;43.604;1.364;2024-02-21T11:49:35;11.48;;;4.30;;
26407;SDS011;14583;43.604;1.364;2024-02-21T11:52:09;17.00;;;5.40;;
26407;SDS011;14583;43.604;1.364;2024-02-21T11:54:34;12.55;;;4.50;;
26407;SDS011;14583;43.604;1.364;2024-02-21T11:57:00;13.90;;;4.78;;
26407;SDS011;14583;43.604;1.364;2024-02-21T11:59:26;10.95;;;4.57;;
26407;SDS011;14583;43.604;1.364;2024-02-21T12:01:55;11.50;;;4.30;;
26407;SDS011;14583;43.604;1.364;2024-02-21T12:04:23;12.82;;;4.63;;
26407;SDS011;14583;43.604;1.364;2024-02-21T12:06:50;17.13;;;4.45;;
26407;SDS011;14583;43.604;1.364;2024-02-21T12:09:17;13.38;;;4.50;;
26407;SDS011;14583;43.604;1.364;2024-02-21T12:11:43;13.48;;;4.50;;
26407;SDS011;14583;43.604;1.364;2024-02-21T12:14:10;11.80;;;4.18;;
26407;SDS011;14583;43.604;1.364;2024-02-21T12:16:36;10.82;;;4.85;;
26407;SDS011;14583;43.604;1.364;2024-02-21T12:19:02;9.75;;;4.50;;
26407;SDS011;14583;43.604;1.364;2024-02-21T12:21:33;11.10;;;4.22;;
26407;SDS011;14583;43.604;1.364;2024-02-21T12:26:57;17.08;;;4.45;;
26407;SDS011;14583;43.604;1.364;2024-02-21T12:29:23;16.17;;;3.88;;
26407;SDS011;14583;43.604;1.364;2024-02-21T12:31:49;17.58;;;4.32;;
26407;SDS011;14583;43.604;1.364;2024-02-21T12:34:16;11.10;;;4.20;;
26407;SDS011;14583;43.604;1.364;2024-02-21T12:36:42;9.52;;;3.55;;
26407;SDS011;14583;43.604;1.364;2024-02-21T12:39:09;7.75;;;3.65;;
26407;SDS011;14583;43.604;1.364;2024-02-21T12:41:36;10.50;;;3.80;;
26407;SDS011;14583;43.604;1.364;2024-02-21T12:44:06;5.03;;;3.00;;
26407;SDS011;14583;43.604;1.364;2024-02-21T12:46:33;8.15;;;3.83;;
26407;SDS011;14583;43.604;1.364;2024-02-21T12:49:04;11.75;;;4.10;;
26407;SDS011;14583;43.604;1.364;2024-02-21T12:51:33;12.43;;;3.67;;
26407;SDS011;14583;43.604;1.364;2024-02-21T12:53:59;10.45;;;3.88;;
26407;SDS011;14583;43.604;1.364;2024-02-21T12:56:25;7.15;;;3.20;;
26407;SDS011;14583;43.604;1.364;2024-02-21T12:58:52;8.60;;;3.65;;
26407;SDS011;14583;43.604;1.364;2024-02-21T13:01:18;7.20;;;3.05;;
26407;SDS011;14583;43.604;1.364;2024-02-21T13:03:44;7.72;;;2.95;;
26407;SDS011;14583;43.604;1.364;2024-02-21T13:06:11;7.63;;;3.28;;
26407;SDS011;14583;43.604;1.364;2024-02-21T13:08:37;8.98;;;3.20;;
26407;SDS011;14583;43.604;1.364;2024-02-21T13:11:03;6.90;;;3.10;;
26407;SDS011;14583;43.604;1.364;2024-02-21T13:13:29;7.55;;;2.95;;
26407;SDS011;14583;43.604;1.364;2024-02-21T13:15:56;7.20;;;2.42;;
26407;SDS011;14583;43.604;1.364;2024-02-21T13:18:22;8.65;;;3.35;;
26407;SDS011;14583;43.604;1.364;2024-02-21T13:20:48;11.52;;;3.63;;
26407;SDS011;14583;43.604;1.364;2024-02-21T13:23:14;10.95;;;3.13;;
26407;SDS011;14583;43.604;1.364;2024-02-21T13:25:39;13.75;;;3.90;;
26407;SDS011;14583;43.604;1.364;2024-02-21T13:28:05;12.15;;;3.97;;
26407;SDS011;14583;43.604;1.364;2024-02-21T13:30:32;10.10;;;2.67;;
26407;SDS011;14583;43.604;1.364;2024-02-21T13:32:57;11.85;;;2.90;;
26407;SDS011;14583;43.604;1.364;2024-02-21T13:35:23;6.32;;;2.60;;
26407;SDS011;14583;43.604;1.364;2024-02-21T13:37:49;7.05;;;2.15;;
26407;SDS011;14583;43.604;1.364;2024-02-21T13:40:15;4.35;;;1.75;;
26407;SDS011;14583;43.604;1.364;2024-02-21T13:42:41;7.43;;;1.83;;
26407;SDS011;14583;43.604;1.364;2024-02-21T13:45:08;9.63;;;2.17;;
26407;SDS011;14583;43.604;1.364;2024-02-21T13:47:34;5.78;;;2.10;;
26407;SDS011;14583;43.604;1.364;2024-02-21T13:50:02;4.40;;;2.00;;
26407;SDS011;14583;43.604;1.364;2024-02-21T13:52:34;6.32;;;2.38;;
26407;SDS011;14583;43.604;1.364;2024-02-21T13:55:00;6.38;;;2.50;;
26407;SDS011;14583;43.604;1.364;2024-02-21T13:57:25;6.95;;;2.20;;
26407;SDS011;14583;43.604;1.364;2024-02-21T13:59:51;5.63;;;2.08;;
26407;SDS011;14583;43.604;1.364;2024-02-21T14:02:18;6.38;;;2.00;;
26407;SDS011;14583;43.604;1.364;2024-02-21T14:04:43;8.60;;;2.17;;
26407;SDS011;14583;43.604;1.364;2024-02-21T14:07:09;5.45;;;2.58;;
26407;SDS011;14583;43.604;1.364;2024-02-21T14:09:35;5.15;;;2.05;;
26407;SDS011;14583;43.604;1.364;2024-02-21T14:12:01;8.18;;;2.45;;
26407;SDS011;14583;43.604;1.364;2024-02-21T14:14:27;5.30;;;2.25;;
26407;SDS011;14583;43.604;1.364;2024-02-21T14:16:52;8.48;;;2.10;;
26407;SDS011;14583;43.604;1.364;2024-02-21T14:19:18;5.10;;;2.28;;
26407;SDS011;14583;43.604;1.364;2024-02-21T14:21:44;5.38;;;2.33;;
26407;SDS011;14583;43.604;1.364;2024-02-21T14:24:10;5.28;;;2.20;;
26407;SDS011;14583;43.604;1.364;2024-02-21T14:26:37;6.28;;;2.38;;
26407;SDS011;14583;43.604;1.364;2024-02-21T14:29:04;4.88;;;2.10;;
26407;SDS011;14583;43.604;1.364;2024-02-21T14:31:32;5.32;;;2.30;;
26407;SDS011;14583;43.604;1.364;2024-02-21T14:33:58;8.05;;;2.38;;
26407;SDS011;14583;43.604;1.364;2024-02-21T14:36:25;4.55;;;2.03;;